sensor_id;sensor_type;location;lat;lon;timestamp;P1;durP1;ratioP1;P2;durP2;ratioP2
66118;SDS011;52912;48.564;9.302;2023-07-31T00:02:24;6.65;;;2.17;;
66118;SDS011;52912;48.564;9.302;2023-07-31T00:04:49;4.38;;;1.85;;
66118;SDS011;52912;48.564;9.302;2023-07-31T00:07:15;4.80;;;1.73;;
66118;SDS011;52912;48.564;9.302;2023-07-31T00:09:40;5.90;;;1.73;;
66118;SDS011;52912;48.564;9.302;2023-07-31T00:12:07;10.63;;;2.13;;
66118;SDS011;52912;48.564;9.302;2023-07-31T00:14:33;2.90;;;1.58;;
66118;SDS011;52912;48.564;9.302;2023-07-31T00:16:58;4.38;;;1.63;;
66118;SDS011;52912;48.564;9.302;2023-07-31T00:19:24;5.28;;;1.77;;
66118;SDS011;52912;48.564;9.302;2023-07-31T00:21:49;5.07;;;1.65;;
66118;SDS011;52912;48.564;9.302;2023-07-31T00:24:15;4.68;;;1.60;;
66118;SDS011;52912;48.564;9.302;2023-07-31T00:26:40;2.63;;;1.50;;
66118;SDS011;52912;48.564;9.302;2023-07-31T00:29:07;5.95;;;1.58;;
66118;SDS011;52912;48.564;9.302;2023-07-31T00:31:32;5.80;;;1.75;;
66118;SDS011;52912;48.564;9.302;2023-07-31T00:33:58;4.43;;;1.65;;
66118;SDS011;52912;48.564;9.302;2023-07-31T00:36:23;3.42;;;1.50;;
66118;SDS011;52912;48.564;9.302;2023-07-31T00:38:49;5.55;;;1.75;;
66118;SDS011;52912;48.564;9.302;2023-07-31T00:41:14;4.88;;;1.90;;
66118;SDS011;52912;48.564;9.302;2023-07-31T00:43:40;2.97;;;1.83;;
66118;SDS011;52912;48.564;9.302;2023-07-31T00:46:07;5.13;;;1.73;;
66118;SDS011;52912;48.564;9.302;2023-07-31T00:48:32;6.38;;;1.98;;
66118;SDS011;52912;48.564;9.302;2023-07-31T00:50:58;3.63;;;1.73;;
66118;SDS011;52912;48.564;9.302;2023-07-31T00:53:24;5.90;;;1.80;;
66118;SDS011;52912;48.564;9.302;2023-07-31T00:55:50;3.38;;;1.75;;
66118;SDS011;52912;48.564;9.302;2023-07-31T00:58:17;5.88;;;1.95;;
66118;SDS011;52912;48.564;9.302;2023-07-31T01:00:42;4.65;;;1.92;;
66118;SDS011;52912;48.564;9.302;2023-07-31T01:03:09;6.50;;;1.88;;
66118;SDS011;52912;48.564;9.302;2023-07-31T01:05:36;3.90;;;1.80;;
66118;SDS011;52912;48.564;9.302;2023-07-31T01:08:08;5.05;;;1.73;;
66118;SDS011;52912;48.564;9.302;2023-07-31T01:10:41;5.07;;;1.63;;
66118;SDS011;52912;48.564;9.302;2023-07-31T01:13:13;2.72;;;1.70;;
66118;SDS011;52912;48.564;9.302;2023-07-31T01:15:39;7.05;;;1.83;;
66118;SDS011;52912;48.564;9.302;2023-07-31T01:18:05;4.45;;;1.80;;
66118;SDS011;52912;48.564;9.302;2023-07-31T01:20:32;4.80;;;1.77;;
66118;SDS011;52912;48.564;9.302;2023-07-31T01:23:08;6.13;;;1.88;;
66118;SDS011;52912;48.564;9.302;2023-07-31T01:25:58;5.22;;;1.75;;
66118;SDS011;52912;48.564;9.302;2023-07-31T01:28:29;3.88;;;1.83;;
66118;SDS011;52912;48.564;9.302;2023-07-31T01:31:03;4.70;;;1.98;;
66118;SDS011;52912;48.564;9.302;2023-07-31T01:33:32;4.43;;;1.88;;
66118;SDS011;52912;48.564;9.302;2023-07-31T01:35:59;5.13;;;2.00;;
66118;SDS011;52912;48.564;9.302;2023-07-31T01:38:25;4.50;;;2.00;;
66118;SDS011;52912;48.564;9.302;2023-07-31T01:40:51;4.45;;;1.85;;
66118;SDS011;52912;48.564;9.302;2023-07-31T01:43:18;6.45;;;1.90;;
66118;SDS011;52912;48.564;9.302;2023-07-31T01:45:43;6.57;;;1.77;;
66118;SDS011;52912;48.564;9.302;2023-07-31T01:48:09;4.88;;;2.10;;
66118;SDS011;52912;48.564;9.302;2023-07-31T01:50:34;4.35;;;1.75;;
66118;SDS011;52912;48.564;9.302;2023-07-31T01:53:00;4.90;;;1.98;;
66118;SDS011;52912;48.564;9.302;2023-07-31T01:55:25;10.30;;;1.92;;
66118;SDS011;52912;48.564;9.302;2023-07-31T01:57:51;4.70;;;2.03;;
66118;SDS011;52912;48.564;9.302;2023-07-31T02:00:18;5.53;;;1.80;;
66118;SDS011;52912;48.564;9.302;2023-07-31T02:02:43;3.85;;;1.75;;
66118;SDS011;52912;48.564;9.302;2023-07-31T02:05:09;3.20;;;2.00;;
66118;SDS011;52912;48.564;9.302;2023-07-31T02:07:34;3.08;;;1.60;;
66118;SDS011;52912;48.564;9.302;2023-07-31T02:10:00;9.10;;;1.90;;
66118;SDS011;52912;48.564;9.302;2023-07-31T02:12:25;3.92;;;1.80;;
66118;SDS011;52912;48.564;9.302;2023-07-31T02:14:51;5.65;;;1.95;;
66118;SDS011;52912;48.564;9.302;2023-07-31T02:17:18;4.10;;;1.92;;
66118;SDS011;52912;48.564;9.302;2023-07-31T02:19:43;6.47;;;1.77;;
66118;SDS011;52912;48.564;9.302;2023-07-31T02:22:09;5.47;;;1.77;;
66118;SDS011;52912;48.564;9.302;2023-07-31T02:24:34;4.80;;;1.70;;
66118;SDS011;52912;48.564;9.302;2023-07-31T02:26:59;5.50;;;2.00;;
66118;SDS011;52912;48.564;9.302;2023-07-31T02:29:25;4.55;;;1.90;;
66118;SDS011;52912;48.564;9.302;2023-07-31T02:31:50;6.05;;;1.77;;
66118;SDS011;52912;48.564;9.302;2023-07-31T02:34:17;4.15;;;1.67;;
66118;SDS011;52912;48.564;9.302;2023-07-31T02:36:43;5.70;;;1.65;;
66118;SDS011;52912;48.564;9.302;2023-07-31T02:39:08;4.47;;;1.60;;
66118;SDS011;52912;48.564;9.302;2023-07-31T02:41:33;5.72;;;2.85;;
66118;SDS011;52912;48.564;9.302;2023-07-31T02:43:59;4.60;;;1.63;;
66118;SDS011;52912;48.564;9.302;2023-07-31T02:46:24;5.90;;;1.85;;
66118;SDS011;52912;48.564;9.302;2023-07-31T02:48:50;5.25;;;1.60;;
66118;SDS011;52912;48.564;9.302;2023-07-31T02:51:17;3.97;;;1.70;;
66118;SDS011;52912;48.564;9.302;2023-07-31T02:53:42;5.50;;;1.95;;
66118;SDS011;52912;48.564;9.302;2023-07-31T02:56:07;4.03;;;1.90;;
66118;SDS011;52912;48.564;9.302;2023-07-31T02:58:33;4.45;;;1.88;;
66118;SDS011;52912;48.564;9.302;2023-07-31T03:00:58;4.72;;;1.63;;
66118;SDS011;52912;48.564;9.302;2023-07-31T03:03:24;3.38;;;1.70;;
66118;SDS011;52912;48.564;9.302;2023-07-31T03:05:49;3.35;;;1.80;;
66118;SDS011;52912;48.564;9.302;2023-07-31T03:08:16;2.80;;;1.80;;
66118;SDS011;52912;48.564;9.302;2023-07-31T03:10:42;4.55;;;1.90;;
66118;SDS011;52912;48.564;9.302;2023-07-31T03:13:07;3.47;;;1.80;;
66118;SDS011;52912;48.564;9.302;2023-07-31T03:15:33;5.20;;;2.53;;
66118;SDS011;52912;48.564;9.302;2023-07-31T03:17:58;4.40;;;2.20;;
66118;SDS011;52912;48.564;9.302;2023-07-31T03:20:24;3.88;;;1.95;;
66118;SDS011;52912;48.564;9.302;2023-07-31T03:22:49;7.00;;;2.50;;
66118;SDS011;52912;48.564;9.302;2023-07-31T03:25:16;4.72;;;1.88;;
66118;SDS011;52912;48.564;9.302;2023-07-31T03:27:41;4.90;;;2.00;;
66118;SDS011;52912;48.564;9.302;2023-07-31T03:30:07;3.53;;;1.88;;
66118;SDS011;52912;48.564;9.302;2023-07-31T03:32:33;5.60;;;2.20;;
66118;SDS011;52912;48.564;9.302;2023-07-31T03:34:58;4.65;;;2.33;;
66118;SDS011;52912;48.564;9.302;2023-07-31T03:37:24;4.65;;;2.10;;
66118;SDS011;52912;48.564;9.302;2023-07-31T03:39:49;4.43;;;1.95;;
66118;SDS011;52912;48.564;9.302;2023-07-31T03:42:16;4.25;;;1.75;;
66118;SDS011;52912;48.564;9.302;2023-07-31T03:44:41;6.05;;;1.73;;
66118;SDS011;52912;48.564;9.302;2023-07-31T03:47:07;7.95;;;2.08;;
66118;SDS011;52912;48.564;9.302;2023-07-31T03:49:32;5.55;;;2.10;;
66118;SDS011;52912;48.564;9.302;2023-07-31T03:51:58;3.40;;;1.92;;
66118;SDS011;52912;48.564;9.302;2023-07-31T03:54:23;5.60;;;2.20;;
66118;SDS011;52912;48.564;9.302;2023-07-31T03:56:49;5.95;;;1.85;;
66118;SDS011;52912;48.564;9.302;2023-07-31T03:59:16;4.00;;;1.90;;
66118;SDS011;52912;48.564;9.302;2023-07-31T04:01:41;3.50;;;1.83;;
66118;SDS011;52912;48.564;9.302;2023-07-31T04:04:06;4.90;;;1.77;;
66118;SDS011;52912;48.564;9.302;2023-07-31T04:06:32;4.88;;;2.10;;
66118;SDS011;52912;48.564;9.302;2023-07-31T04:08:57;5.47;;;1.80;;
66118;SDS011;52912;48.564;9.302;2023-07-31T04:11:23;5.95;;;1.98;;
66118;SDS011;52912;48.564;9.302;2023-07-31T04:13:48;5.88;;;2.40;;
66118;SDS011;52912;48.564;9.302;2023-07-31T04:16:15;5.70;;;2.63;;
66118;SDS011;52912;48.564;9.302;2023-07-31T04:18:40;6.85;;;2.08;;
66118;SDS011;52912;48.564;9.302;2023-07-31T04:21:06;4.15;;;2.17;;
66118;SDS011;52912;48.564;9.302;2023-07-31T04:23:31;5.75;;;1.90;;
66118;SDS011;52912;48.564;9.302;2023-07-31T04:25:57;4.80;;;1.80;;
66118;SDS011;52912;48.564;9.302;2023-07-31T04:28:22;4.30;;;1.90;;
66118;SDS011;52912;48.564;9.302;2023-07-31T04:30:48;5.20;;;2.05;;
66118;SDS011;52912;48.564;9.302;2023-07-31T04:33:14;5.95;;;2.03;;
66118;SDS011;52912;48.564;9.302;2023-07-31T04:35:40;5.07;;;1.83;;
66118;SDS011;52912;48.564;9.302;2023-07-31T04:38:05;4.10;;;1.92;;
66118;SDS011;52912;48.564;9.302;2023-07-31T04:40:31;3.78;;;1.90;;
66118;SDS011;52912;48.564;9.302;2023-07-31T04:42:56;5.93;;;2.00;;
66118;SDS011;52912;48.564;9.302;2023-07-31T04:45:22;5.00;;;2.15;;
66118;SDS011;52912;48.564;9.302;2023-07-31T04:47:47;4.03;;;1.73;;
66118;SDS011;52912;48.564;9.302;2023-07-31T04:50:14;3.63;;;1.95;;
66118;SDS011;52912;48.564;9.302;2023-07-31T04:52:40;4.90;;;1.90;;
66118;SDS011;52912;48.564;9.302;2023-07-31T04:55:05;5.97;;;2.00;;
66118;SDS011;52912;48.564;9.302;2023-07-31T04:57:31;4.60;;;1.88;;
66118;SDS011;52912;48.564;9.302;2023-07-31T04:59:56;6.45;;;1.98;;
66118;SDS011;52912;48.564;9.302;2023-07-31T05:02:22;8.20;;;2.03;;
66118;SDS011;52912;48.564;9.302;2023-07-31T05:04:47;8.48;;;2.08;;
66118;SDS011;52912;48.564;9.302;2023-07-31T05:07:14;3.25;;;1.80;;
66118;SDS011;52912;48.564;9.302;2023-07-31T05:09:40;4.32;;;2.08;;
66118;SDS011;52912;48.564;9.302;2023-07-31T05:12:05;4.85;;;1.90;;
66118;SDS011;52912;48.564;9.302;2023-07-31T05:14:31;5.95;;;1.83;;
66118;SDS011;52912;48.564;9.302;2023-07-31T05:16:57;5.95;;;2.28;;
66118;SDS011;52912;48.564;9.302;2023-07-31T05:19:22;4.55;;;1.98;;
66118;SDS011;52912;48.564;9.302;2023-07-31T05:21:47;5.88;;;2.30;;
66118;SDS011;52912;48.564;9.302;2023-07-31T05:24:14;5.82;;;2.15;;
66118;SDS011;52912;48.564;9.302;2023-07-31T05:26:40;4.63;;;2.00;;
66118;SDS011;52912;48.564;9.302;2023-07-31T05:29:05;5.70;;;2.20;;
66118;SDS011;52912;48.564;9.302;2023-07-31T05:31:31;4.57;;;2.15;;
66118;SDS011;52912;48.564;9.302;2023-07-31T05:33:56;4.60;;;2.13;;
66118;SDS011;52912;48.564;9.302;2023-07-31T05:36:21;6.32;;;2.20;;
66118;SDS011;52912;48.564;9.302;2023-07-31T05:38:47;5.45;;;2.13;;
66118;SDS011;52912;48.564;9.302;2023-07-31T05:41:14;4.57;;;2.30;;
66118;SDS011;52912;48.564;9.302;2023-07-31T05:43:39;4.85;;;2.10;;
66118;SDS011;52912;48.564;9.302;2023-07-31T05:46:05;5.78;;;2.05;;
66118;SDS011;52912;48.564;9.302;2023-07-31T05:48:31;3.72;;;2.10;;
66118;SDS011;52912;48.564;9.302;2023-07-31T05:50:56;4.65;;;2.20;;
66118;SDS011;52912;48.564;9.302;2023-07-31T05:53:22;5.82;;;2.00;;
66118;SDS011;52912;48.564;9.302;2023-07-31T05:55:47;5.20;;;2.10;;
66118;SDS011;52912;48.564;9.302;2023-07-31T05:58:14;7.82;;;2.42;;
66118;SDS011;52912;48.564;9.302;2023-07-31T06:00:39;5.80;;;2.15;;
66118;SDS011;52912;48.564;9.302;2023-07-31T06:03:05;4.97;;;2.20;;
66118;SDS011;52912;48.564;9.302;2023-07-31T06:05:30;5.90;;;2.17;;
66118;SDS011;52912;48.564;9.302;2023-07-31T06:07:56;6.85;;;2.17;;
66118;SDS011;52912;48.564;9.302;2023-07-31T06:10:21;5.90;;;2.28;;
66118;SDS011;52912;48.564;9.302;2023-07-31T06:12:47;4.20;;;2.20;;
66118;SDS011;52912;48.564;9.302;2023-07-31T06:15:14;5.85;;;2.40;;
66118;SDS011;52912;48.564;9.302;2023-07-31T06:17:39;6.38;;;2.30;;
66118;SDS011;52912;48.564;9.302;2023-07-31T06:20:06;5.30;;;2.20;;
66118;SDS011;52912;48.564;9.302;2023-07-31T06:22:32;2.65;;;1.92;;
66118;SDS011;52912;48.564;9.302;2023-07-31T06:24:58;6.85;;;2.35;;
66118;SDS011;52912;48.564;9.302;2023-07-31T06:27:23;4.90;;;2.05;;
66118;SDS011;52912;48.564;9.302;2023-07-31T06:29:49;7.60;;;2.70;;
66118;SDS011;52912;48.564;9.302;2023-07-31T06:32:16;5.30;;;2.35;;
66118;SDS011;52912;48.564;9.302;2023-07-31T06:34:42;5.40;;;2.45;;
66118;SDS011;52912;48.564;9.302;2023-07-31T06:37:07;7.68;;;2.47;;
66118;SDS011;52912;48.564;9.302;2023-07-31T06:39:33;4.88;;;2.42;;
66118;SDS011;52912;48.564;9.302;2023-07-31T06:41:58;6.25;;;2.15;;
66118;SDS011;52912;48.564;9.302;2023-07-31T06:44:24;6.15;;;2.17;;
66118;SDS011;52912;48.564;9.302;2023-07-31T06:46:49;4.65;;;2.08;;
66118;SDS011;52912;48.564;9.302;2023-07-31T06:49:16;6.68;;;2.20;;
66118;SDS011;52912;48.564;9.302;2023-07-31T06:51:41;4.25;;;1.90;;
66118;SDS011;52912;48.564;9.302;2023-07-31T06:54:07;9.00;;;2.30;;
66118;SDS011;52912;48.564;9.302;2023-07-31T06:56:33;3.47;;;2.05;;
66118;SDS011;52912;48.564;9.302;2023-07-31T06:58:58;5.65;;;2.05;;
66118;SDS011;52912;48.564;9.302;2023-07-31T07:01:24;4.43;;;2.25;;
66118;SDS011;52912;48.564;9.302;2023-07-31T07:03:49;8.00;;;1.83;;
66118;SDS011;52912;48.564;9.302;2023-07-31T07:06:16;2.65;;;1.80;;
66118;SDS011;52912;48.564;9.302;2023-07-31T07:08:41;8.73;;;2.10;;
66118;SDS011;52912;48.564;9.302;2023-07-31T07:11:07;6.45;;;2.10;;
66118;SDS011;52912;48.564;9.302;2023-07-31T07:13:32;3.33;;;2.08;;
66118;SDS011;52912;48.564;9.302;2023-07-31T07:15:58;5.05;;;1.98;;
66118;SDS011;52912;48.564;9.302;2023-07-31T07:18:23;9.18;;;2.22;;
66118;SDS011;52912;48.564;9.302;2023-07-31T07:20:49;4.75;;;1.95;;
66118;SDS011;52912;48.564;9.302;2023-07-31T07:23:17;4.60;;;1.70;;
66118;SDS011;52912;48.564;9.302;2023-07-31T07:25:42;3.67;;;1.63;;
66118;SDS011;52912;48.564;9.302;2023-07-31T07:28:08;5.45;;;2.25;;
66118;SDS011;52912;48.564;9.302;2023-07-31T07:30:33;7.85;;;2.33;;
66118;SDS011;52912;48.564;9.302;2023-07-31T07:32:59;7.93;;;1.90;;
66118;SDS011;52912;48.564;9.302;2023-07-31T07:35:24;5.05;;;2.03;;
66118;SDS011;52912;48.564;9.302;2023-07-31T07:37:50;6.35;;;1.80;;
66118;SDS011;52912;48.564;9.302;2023-07-31T07:40:16;5.40;;;2.15;;
66118;SDS011;52912;48.564;9.302;2023-07-31T07:42:42;7.65;;;2.13;;
66118;SDS011;52912;48.564;9.302;2023-07-31T07:45:08;4.22;;;1.75;;
66118;SDS011;52912;48.564;9.302;2023-07-31T07:47:34;6.57;;;2.13;;
66118;SDS011;52912;48.564;9.302;2023-07-31T07:49:59;4.63;;;1.67;;
66118;SDS011;52912;48.564;9.302;2023-07-31T07:52:25;5.50;;;1.80;;
66118;SDS011;52912;48.564;9.302;2023-07-31T07:54:50;5.30;;;1.70;;
66118;SDS011;52912;48.564;9.302;2023-07-31T07:57:17;7.50;;;1.92;;
66118;SDS011;52912;48.564;9.302;2023-07-31T07:59:43;3.92;;;1.90;;
66118;SDS011;52912;48.564;9.302;2023-07-31T08:02:08;3.70;;;1.77;;
66118;SDS011;52912;48.564;9.302;2023-07-31T08:04:34;5.25;;;1.88;;
66118;SDS011;52912;48.564;9.302;2023-07-31T08:06:59;5.53;;;1.88;;
66118;SDS011;52912;48.564;9.302;2023-07-31T08:09:24;4.63;;;1.80;;
66118;SDS011;52912;48.564;9.302;2023-07-31T08:11:50;6.53;;;2.10;;
66118;SDS011;52912;48.564;9.302;2023-07-31T08:14:17;5.85;;;1.95;;
66118;SDS011;52912;48.564;9.302;2023-07-31T08:16:42;6.47;;;2.10;;
66118;SDS011;52912;48.564;9.302;2023-07-31T08:19:08;5.38;;;1.90;;
66118;SDS011;52912;48.564;9.302;2023-07-31T08:21:33;4.43;;;2.00;;
66118;SDS011;52912;48.564;9.302;2023-07-31T08:23:58;6.57;;;2.15;;
66118;SDS011;52912;48.564;9.302;2023-07-31T08:26:24;5.55;;;1.85;;
66118;SDS011;52912;48.564;9.302;2023-07-31T08:28:49;7.28;;;1.95;;
66118;SDS011;52912;48.564;9.302;2023-07-31T08:31:16;6.88;;;2.13;;
66118;SDS011;52912;48.564;9.302;2023-07-31T08:33:42;6.53;;;2.10;;
66118;SDS011;52912;48.564;9.302;2023-07-31T08:36:07;3.70;;;1.63;;
66118;SDS011;52912;48.564;9.302;2023-07-31T08:38:33;7.93;;;2.22;;
66118;SDS011;52912;48.564;9.302;2023-07-31T08:40:58;4.75;;;1.63;;
66118;SDS011;52912;48.564;9.302;2023-07-31T08:43:25;6.65;;;2.00;;
66118;SDS011;52912;48.564;9.302;2023-07-31T08:45:51;5.32;;;2.05;;
66118;SDS011;52912;48.564;9.302;2023-07-31T08:48:17;5.10;;;1.75;;
66118;SDS011;52912;48.564;9.302;2023-07-31T08:50:44;7.63;;;2.30;;
66118;SDS011;52912;48.564;9.302;2023-07-31T08:53:10;5.72;;;2.05;;
66118;SDS011;52912;48.564;9.302;2023-07-31T08:55:36;4.78;;;1.77;;
66118;SDS011;52912;48.564;9.302;2023-07-31T08:58:03;4.35;;;1.85;;
66118;SDS011;52912;48.564;9.302;2023-07-31T09:00:29;4.78;;;1.92;;
66118;SDS011;52912;48.564;9.302;2023-07-31T09:02:56;6.07;;;2.45;;
66118;SDS011;52912;48.564;9.302;2023-07-31T09:05:26;4.90;;;2.20;;
66118;SDS011;52912;48.564;9.302;2023-07-31T09:07:52;3.45;;;1.80;;
66118;SDS011;52912;48.564;9.302;2023-07-31T09:10:18;4.78;;;2.25;;
66118;SDS011;52912;48.564;9.302;2023-07-31T09:12:43;6.63;;;2.40;;
66118;SDS011;52912;48.564;9.302;2023-07-31T09:15:09;5.70;;;2.00;;
66118;SDS011;52912;48.564;9.302;2023-07-31T09:17:36;4.70;;;1.95;;
66118;SDS011;52912;48.564;9.302;2023-07-31T09:20:12;6.82;;;2.20;;
66118;SDS011;52912;48.564;9.302;2023-07-31T09:22:40;10.00;;;2.10;;
66118;SDS011;52912;48.564;9.302;2023-07-31T09:25:13;6.22;;;2.10;;
66118;SDS011;52912;48.564;9.302;2023-07-31T09:27:49;5.20;;;2.20;;
66118;SDS011;52912;48.564;9.302;2023-07-31T09:30:15;6.55;;;2.20;;
66118;SDS011;52912;48.564;9.302;2023-07-31T09:32:41;5.53;;;2.25;;
66118;SDS011;52912;48.564;9.302;2023-07-31T09:35:14;6.90;;;2.38;;
66118;SDS011;52912;48.564;9.302;2023-07-31T09:37:45;7.55;;;2.40;;
66118;SDS011;52912;48.564;9.302;2023-07-31T09:40:14;4.65;;;2.00;;
66118;SDS011;52912;48.564;9.302;2023-07-31T09:42:50;5.05;;;2.25;;
66118;SDS011;52912;48.564;9.302;2023-07-31T09:45:16;5.25;;;2.03;;
66118;SDS011;52912;48.564;9.302;2023-07-31T09:47:45;6.43;;;2.53;;
66118;SDS011;52912;48.564;9.302;2023-07-31T09:50:11;5.50;;;2.10;;
66118;SDS011;52912;48.564;9.302;2023-07-31T09:52:38;6.35;;;2.10;;
66118;SDS011;52912;48.564;9.302;2023-07-31T09:55:05;6.25;;;2.55;;
66118;SDS011;52912;48.564;9.302;2023-07-31T09:57:31;6.18;;;2.30;;
66118;SDS011;52912;48.564;9.302;2023-07-31T09:59:58;3.90;;;1.98;;
66118;SDS011;52912;48.564;9.302;2023-07-31T10:02:23;5.43;;;1.88;;
66118;SDS011;52912;48.564;9.302;2023-07-31T10:04:50;9.18;;;2.45;;
66118;SDS011;52912;48.564;9.302;2023-07-31T10:07:18;6.15;;;2.28;;
66118;SDS011;52912;48.564;9.302;2023-07-31T10:09:45;4.90;;;2.20;;
66118;SDS011;52912;48.564;9.302;2023-07-31T10:12:13;6.93;;;2.40;;
66118;SDS011;52912;48.564;9.302;2023-07-31T10:14:43;7.32;;;2.17;;
66118;SDS011;52912;48.564;9.302;2023-07-31T10:17:09;3.85;;;2.10;;
66118;SDS011;52912;48.564;9.302;2023-07-31T10:19:35;5.00;;;2.15;;
66118;SDS011;52912;48.564;9.302;2023-07-31T10:22:02;4.78;;;2.33;;
66118;SDS011;52912;48.564;9.302;2023-07-31T10:24:29;5.70;;;1.90;;
66118;SDS011;52912;48.564;9.302;2023-07-31T10:26:55;5.88;;;2.50;;
66118;SDS011;52912;48.564;9.302;2023-07-31T10:29:26;5.35;;;2.20;;
66118;SDS011;52912;48.564;9.302;2023-07-31T10:31:53;6.90;;;2.67;;
66118;SDS011;52912;48.564;9.302;2023-07-31T10:34:21;3.67;;;1.80;;
66118;SDS011;52912;48.564;9.302;2023-07-31T10:36:46;5.13;;;2.10;;
66118;SDS011;52912;48.564;9.302;2023-07-31T10:41:58;5.18;;;1.80;;
66118;SDS011;52912;48.564;9.302;2023-07-31T10:44:24;5.53;;;2.40;;
66118;SDS011;52912;48.564;9.302;2023-07-31T10:46:53;4.97;;;2.05;;
66118;SDS011;52912;48.564;9.302;2023-07-31T10:49:20;5.18;;;2.33;;
66118;SDS011;52912;48.564;9.302;2023-07-31T10:51:46;5.63;;;2.17;;
66118;SDS011;52912;48.564;9.302;2023-07-31T10:54:12;6.82;;;2.00;;
66118;SDS011;52912;48.564;9.302;2023-07-31T10:56:38;4.35;;;2.03;;
66118;SDS011;52912;48.564;9.302;2023-07-31T10:59:04;6.07;;;2.30;;
66118;SDS011;52912;48.564;9.302;2023-07-31T11:04:21;4.33;;;2.17;;
66118;SDS011;52912;48.564;9.302;2023-07-31T11:06:54;6.63;;;2.30;;
66118;SDS011;52912;48.564;9.302;2023-07-31T11:09:20;5.53;;;1.90;;
66118;SDS011;52912;48.564;9.302;2023-07-31T11:11:46;5.75;;;2.42;;
66118;SDS011;52912;48.564;9.302;2023-07-31T11:14:11;5.25;;;2.20;;
66118;SDS011;52912;48.564;9.302;2023-07-31T11:16:37;4.65;;;2.03;;
66118;SDS011;52912;48.564;9.302;2023-07-31T11:19:03;6.28;;;2.15;;
66118;SDS011;52912;48.564;9.302;2023-07-31T11:21:34;5.65;;;2.35;;
66118;SDS011;52912;48.564;9.302;2023-07-31T11:24:00;6.40;;;2.47;;
66118;SDS011;52912;48.564;9.302;2023-07-31T11:26:25;5.80;;;2.25;;
66118;SDS011;52912;48.564;9.302;2023-07-31T11:28:52;5.07;;;2.22;;
66118;SDS011;52912;48.564;9.302;2023-07-31T11:31:17;7.90;;;2.20;;
66118;SDS011;52912;48.564;9.302;2023-07-31T11:33:43;5.72;;;2.45;;
66118;SDS011;52912;48.564;9.302;2023-07-31T11:36:15;4.22;;;2.03;;
66118;SDS011;52912;48.564;9.302;2023-07-31T11:38:41;6.40;;;2.30;;
66118;SDS011;52912;48.564;9.302;2023-07-31T11:41:06;4.28;;;1.90;;
66118;SDS011;52912;48.564;9.302;2023-07-31T11:43:32;6.53;;;2.22;;
66118;SDS011;52912;48.564;9.302;2023-07-31T11:45:58;5.30;;;2.67;;
66118;SDS011;52912;48.564;9.302;2023-07-31T11:48:25;4.40;;;2.03;;
66118;SDS011;52912;48.564;9.302;2023-07-31T11:50:53;6.05;;;2.28;;
66118;SDS011;52912;48.564;9.302;2023-07-31T11:53:22;4.68;;;2.20;;
66118;SDS011;52912;48.564;9.302;2023-07-31T11:55:50;4.78;;;2.15;;
66118;SDS011;52912;48.564;9.302;2023-07-31T11:58:16;8.55;;;2.42;;
66118;SDS011;52912;48.564;9.302;2023-07-31T12:00:43;11.10;;;2.20;;
66118;SDS011;52912;48.564;9.302;2023-07-31T12:03:08;10.07;;;2.08;;
66118;SDS011;52912;48.564;9.302;2023-07-31T12:05:34;6.22;;;2.17;;
66118;SDS011;52912;48.564;9.302;2023-07-31T12:08:00;4.30;;;2.20;;
66118;SDS011;52912;48.564;9.302;2023-07-31T12:10:28;5.72;;;2.30;;
66118;SDS011;52912;48.564;9.302;2023-07-31T12:12:58;5.43;;;2.47;;
66118;SDS011;52912;48.564;9.302;2023-07-31T12:15:29;7.60;;;2.88;;
66118;SDS011;52912;48.564;9.302;2023-07-31T12:17:58;4.60;;;2.10;;
66118;SDS011;52912;48.564;9.302;2023-07-31T12:20:23;8.40;;;2.53;;
66118;SDS011;52912;48.564;9.302;2023-07-31T12:22:49;6.50;;;2.63;;
66118;SDS011;52912;48.564;9.302;2023-07-31T12:25:15;4.03;;;2.17;;
66118;SDS011;52912;48.564;9.302;2023-07-31T12:27:43;9.07;;;2.70;;
66118;SDS011;52912;48.564;9.302;2023-07-31T12:32:53;4.78;;;2.20;;
66118;SDS011;52912;48.564;9.302;2023-07-31T12:35:19;6.70;;;2.67;;
66118;SDS011;52912;48.564;9.302;2023-07-31T12:37:44;5.90;;;2.40;;
66118;SDS011;52912;48.564;9.302;2023-07-31T12:40:10;7.20;;;2.70;;
66118;SDS011;52912;48.564;9.302;2023-07-31T12:42:36;6.70;;;2.53;;
66118;SDS011;52912;48.564;9.302;2023-07-31T12:45:03;5.55;;;2.50;;
66118;SDS011;52912;48.564;9.302;2023-07-31T12:47:29;6.47;;;2.33;;
66118;SDS011;52912;48.564;9.302;2023-07-31T12:49:55;5.90;;;2.45;;
66118;SDS011;52912;48.564;9.302;2023-07-31T12:52:20;5.65;;;2.33;;
66118;SDS011;52912;48.564;9.302;2023-07-31T12:54:46;5.93;;;2.72;;
66118;SDS011;52912;48.564;9.302;2023-07-31T12:57:11;6.85;;;2.58;;
66118;SDS011;52912;48.564;9.302;2023-07-31T12:59:37;5.25;;;2.60;;
66118;SDS011;52912;48.564;9.302;2023-07-31T13:02:04;6.30;;;2.80;;
66118;SDS011;52912;48.564;9.302;2023-07-31T13:04:30;5.10;;;2.63;;
66118;SDS011;52912;48.564;9.302;2023-07-31T13:06:55;5.32;;;2.58;;
66118;SDS011;52912;48.564;9.302;2023-07-31T13:09:21;5.22;;;2.20;;
66118;SDS011;52912;48.564;9.302;2023-07-31T13:11:46;6.50;;;2.70;;
66118;SDS011;52912;48.564;9.302;2023-07-31T13:14:12;4.75;;;2.55;;
66118;SDS011;52912;48.564;9.302;2023-07-31T13:16:37;6.25;;;2.60;;
66118;SDS011;52912;48.564;9.302;2023-07-31T13:19:04;6.47;;;2.65;;
66118;SDS011;52912;48.564;9.302;2023-07-31T13:21:29;6.00;;;2.70;;
66118;SDS011;52912;48.564;9.302;2023-07-31T13:23:55;5.28;;;2.85;;
66118;SDS011;52912;48.564;9.302;2023-07-31T13:26:20;4.68;;;2.58;;
66118;SDS011;52912;48.564;9.302;2023-07-31T13:28:46;4.72;;;2.42;;
66118;SDS011;52912;48.564;9.302;2023-07-31T13:31:11;7.53;;;2.45;;
66118;SDS011;52912;48.564;9.302;2023-07-31T13:33:36;5.13;;;2.40;;
66118;SDS011;52912;48.564;9.302;2023-07-31T13:36:03;5.38;;;2.80;;
66118;SDS011;52912;48.564;9.302;2023-07-31T13:38:29;7.07;;;2.90;;
66118;SDS011;52912;48.564;9.302;2023-07-31T13:40:54;7.57;;;3.00;;
66118;SDS011;52912;48.564;9.302;2023-07-31T13:43:20;4.22;;;2.30;;
66118;SDS011;52912;48.564;9.302;2023-07-31T13:45:45;5.80;;;2.50;;
66118;SDS011;52912;48.564;9.302;2023-07-31T13:48:11;6.53;;;2.70;;
66118;SDS011;52912;48.564;9.302;2023-07-31T13:50:36;4.07;;;2.30;;
66118;SDS011;52912;48.564;9.302;2023-07-31T13:53:03;4.90;;;2.50;;
66118;SDS011;52912;48.564;9.302;2023-07-31T13:55:28;6.03;;;2.47;;
66118;SDS011;52912;48.564;9.302;2023-07-31T13:57:54;5.95;;;2.60;;
66118;SDS011;52912;48.564;9.302;2023-07-31T14:00:19;6.03;;;2.60;;
66118;SDS011;52912;48.564;9.302;2023-07-31T14:02:45;4.07;;;2.33;;
66118;SDS011;52912;48.564;9.302;2023-07-31T14:05:10;8.27;;;2.50;;
66118;SDS011;52912;48.564;9.302;2023-07-31T14:07:36;8.82;;;2.88;;
66118;SDS011;52912;48.564;9.302;2023-07-31T14:10:03;6.70;;;2.80;;
66118;SDS011;52912;48.564;9.302;2023-07-31T14:12:29;4.82;;;2.38;;
66118;SDS011;52912;48.564;9.302;2023-07-31T14:14:54;5.82;;;2.65;;
66118;SDS011;52912;48.564;9.302;2023-07-31T14:17:19;5.15;;;2.42;;
66118;SDS011;52912;48.564;9.302;2023-07-31T14:19:45;7.38;;;2.50;;
66118;SDS011;52912;48.564;9.302;2023-07-31T14:22:10;5.32;;;2.35;;
66118;SDS011;52912;48.564;9.302;2023-07-31T14:24:36;5.50;;;2.40;;
66118;SDS011;52912;48.564;9.302;2023-07-31T14:27:03;5.90;;;2.67;;
66118;SDS011;52912;48.564;9.302;2023-07-31T14:29:29;5.28;;;2.50;;
66118;SDS011;52912;48.564;9.302;2023-07-31T14:31:54;4.85;;;2.40;;
66118;SDS011;52912;48.564;9.302;2023-07-31T14:34:20;3.97;;;2.40;;
66118;SDS011;52912;48.564;9.302;2023-07-31T14:36:45;4.88;;;2.72;;
66118;SDS011;52912;48.564;9.302;2023-07-31T14:39:11;5.88;;;2.40;;
66118;SDS011;52912;48.564;9.302;2023-07-31T14:41:36;5.20;;;2.38;;
66118;SDS011;52912;48.564;9.302;2023-07-31T14:44:03;4.90;;;2.53;;
66118;SDS011;52912;48.564;9.302;2023-07-31T14:46:29;7.53;;;2.33;;
66118;SDS011;52912;48.564;9.302;2023-07-31T14:48:54;8.80;;;2.67;;
66118;SDS011;52912;48.564;9.302;2023-07-31T14:51:19;5.97;;;2.70;;